sensor_id;sensor_type;location;lat;lon;timestamp;P1;durP1;ratioP1;P2;durP2;ratioP2
4057;SDS011;2044;48.692;9.020;2022-12-07T00:01:21;12.60;;;7.63;;
4057;SDS011;2044;48.692;9.020;2022-12-07T00:03:51;12.47;;;7.27;;
4057;SDS011;2044;48.692;9.020;2022-12-07T00:06:22;19.33;;;7.97;;
4057;SDS011;2044;48.692;9.020;2022-12-07T00:08:49;13.57;;;7.83;;
4057;SDS011;2044;48.692;9.020;2022-12-07T00:11:17;13.70;;;6.57;;
4057;SDS011;2044;48.692;9.020;2022-12-07T00:13:45;13.73;;;7.00;;
4057;SDS011;2044;48.692;9.020;2022-12-07T00:16:13;13.17;;;6.50;;
4057;SDS011;2044;48.692;9.020;2022-12-07T00:18:41;19.43;;;7.90;;
4057;SDS011;2044;48.692;9.020;2022-12-07T00:21:11;9.60;;;6.03;;
4057;SDS011;2044;48.692;9.020;2022-12-07T00:23:41;13.50;;;6.90;;
4057;SDS011;2044;48.692;9.020;2022-12-07T00:26:10;14.07;;;8.10;;
4057;SDS011;2044;48.692;9.020;2022-12-07T00:28:38;16.00;;;7.10;;
4057;SDS011;2044;48.692;9.020;2022-12-07T00:31:06;14.33;;;7.33;;
4057;SDS011;2044;48.692;9.020;2022-12-07T00:33:34;18.93;;;9.07;;
4057;SDS011;2044;48.692;9.020;2022-12-07T00:36:01;16.83;;;7.80;;
4057;SDS011;2044;48.692;9.020;2022-12-07T00:38:32;18.17;;;7.97;;
4057;SDS011;2044;48.692;9.020;2022-12-07T00:41:01;14.37;;;7.00;;
4057;SDS011;2044;48.692;9.020;2022-12-07T00:43:29;18.70;;;8.53;;
4057;SDS011;2044;48.692;9.020;2022-12-07T00:45:57;13.20;;;7.47;;
4057;SDS011;2044;48.692;9.020;2022-12-07T00:48:24;18.47;;;8.47;;
4057;SDS011;2044;48.692;9.020;2022-12-07T00:50:52;12.97;;;6.90;;
4057;SDS011;2044;48.692;9.020;2022-12-07T00:53:19;18.27;;;8.53;;
4057;SDS011;2044;48.692;9.020;2022-12-07T00:55:47;18.17;;;8.83;;
4057;SDS011;2044;48.692;9.020;2022-12-07T00:58:14;19.90;;;8.20;;
4057;SDS011;2044;48.692;9.020;2022-12-07T01:00:42;18.33;;;9.00;;
4057;SDS011;2044;48.692;9.020;2022-12-07T01:03:10;17.37;;;9.00;;
4057;SDS011;2044;48.692;9.020;2022-12-07T01:05:38;16.93;;;8.90;;
4057;SDS011;2044;48.692;9.020;2022-12-07T01:08:05;22.40;;;9.97;;
4057;SDS011;2044;48.692;9.020;2022-12-07T01:10:32;17.70;;;8.20;;
4057;SDS011;2044;48.692;9.020;2022-12-07T01:13:00;17.57;;;8.37;;
4057;SDS011;2044;48.692;9.020;2022-12-07T01:15:28;25.27;;;9.90;;
4057;SDS011;2044;48.692;9.020;2022-12-07T01:17:54;22.43;;;9.80;;
4057;SDS011;2044;48.692;9.020;2022-12-07T01:20:21;20.93;;;10.53;;
4057;SDS011;2044;48.692;9.020;2022-12-07T01:22:48;19.70;;;9.73;;
4057;SDS011;2044;48.692;9.020;2022-12-07T01:25:15;19.93;;;9.10;;
4057;SDS011;2044;48.692;9.020;2022-12-07T01:27:42;14.73;;;8.73;;
4057;SDS011;2044;48.692;9.020;2022-12-07T01:30:12;17.43;;;8.70;;
4057;SDS011;2044;48.692;9.020;2022-12-07T01:32:39;16.57;;;8.10;;
4057;SDS011;2044;48.692;9.020;2022-12-07T01:35:06;25.30;;;9.50;;
4057;SDS011;2044;48.692;9.020;2022-12-07T01:37:34;21.73;;;9.40;;
4057;SDS011;2044;48.692;9.020;2022-12-07T01:40:02;19.20;;;10.37;;
4057;SDS011;2044;48.692;9.020;2022-12-07T01:42:29;18.10;;;9.17;;
4057;SDS011;2044;48.692;9.020;2022-12-07T01:48:08;16.73;;;7.93;;
4057;SDS011;2044;48.692;9.020;2022-12-07T01:50:37;23.37;;;9.57;;
4057;SDS011;2044;48.692;9.020;2022-12-07T01:53:05;16.87;;;8.17;;
4057;SDS011;2044;48.692;9.020;2022-12-07T01:55:35;17.30;;;8.40;;
4057;SDS011;2044;48.692;9.020;2022-12-07T01:58:04;19.80;;;9.40;;
4057;SDS011;2044;48.692;9.020;2022-12-07T02:00:31;20.97;;;8.60;;
4057;SDS011;2044;48.692;9.020;2022-12-07T02:03:00;15.57;;;7.80;;
4057;SDS011;2044;48.692;9.020;2022-12-07T02:05:32;17.80;;;9.23;;
4057;SDS011;2044;48.692;9.020;2022-12-07T02:08:00;20.87;;;9.93;;
4057;SDS011;2044;48.692;9.020;2022-12-07T02:10:29;19.20;;;8.67;;
4057;SDS011;2044;48.692;9.020;2022-12-07T02:12:57;18.37;;;8.67;;
4057;SDS011;2044;48.692;9.020;2022-12-07T02:15:26;19.73;;;9.57;;
4057;SDS011;2044;48.692;9.020;2022-12-07T02:18:00;19.83;;;9.20;;
4057;SDS011;2044;48.692;9.020;2022-12-07T02:20:34;21.03;;;10.07;;
4057;SDS011;2044;48.692;9.020;2022-12-07T02:26:13;19.20;;;8.57;;
4057;SDS011;2044;48.692;9.020;2022-12-07T02:29:10;21.03;;;9.00;;
4057;SDS011;2044;48.692;9.020;2022-12-07T02:31:42;18.73;;;9.17;;
4057;SDS011;2044;48.692;9.020;2022-12-07T02:34:14;19.03;;;9.13;;
4057;SDS011;2044;48.692;9.020;2022-12-07T02:36:50;19.10;;;10.07;;
4057;SDS011;2044;48.692;9.020;2022-12-07T02:39:23;18.33;;;8.60;;
4057;SDS011;2044;48.692;9.020;2022-12-07T02:41:55;16.57;;;8.00;;
4057;SDS011;2044;48.692;9.020;2022-12-07T02:44:29;20.40;;;9.00;;
4057;SDS011;2044;48.692;9.020;2022-12-07T02:46:58;19.23;;;9.47;;
4057;SDS011;2044;48.692;9.020;2022-12-07T02:49:27;17.80;;;8.50;;
4057;SDS011;2044;48.692;9.020;2022-12-07T02:51:55;19.80;;;8.10;;
4057;SDS011;2044;48.692;9.020;2022-12-07T02:54:22;18.63;;;8.50;;
4057;SDS011;2044;48.692;9.020;2022-12-07T02:56:50;14.67;;;7.17;;
4057;SDS011;2044;48.692;9.020;2022-12-07T02:59:23;18.13;;;8.10;;
4057;SDS011;2044;48.692;9.020;2022-12-07T03:02:06;15.27;;;7.83;;
4057;SDS011;2044;48.692;9.020;2022-12-07T03:04:43;21.50;;;9.53;;
4057;SDS011;2044;48.692;9.020;2022-12-07T03:07:19;16.10;;;7.57;;
4057;SDS011;2044;48.692;9.020;2022-12-07T03:09:53;16.73;;;8.60;;
4057;SDS011;2044;48.692;9.020;2022-12-07T03:12:28;17.77;;;8.10;;
4057;SDS011;2044;48.692;9.020;2022-12-07T03:15:00;16.27;;;7.60;;
4057;SDS011;2044;48.692;9.020;2022-12-07T03:17:34;14.53;;;8.13;;
4057;SDS011;2044;48.692;9.020;2022-12-07T03:20:05;18.53;;;8.63;;
4057;SDS011;2044;48.692;9.020;2022-12-07T03:22:34;16.53;;;8.23;;
4057;SDS011;2044;48.692;9.020;2022-12-07T03:28:01;19.37;;;8.93;;
4057;SDS011;2044;48.692;9.020;2022-12-07T03:30:32;14.40;;;7.57;;
4057;SDS011;2044;48.692;9.020;2022-12-07T03:33:06;15.20;;;8.07;;
4057;SDS011;2044;48.692;9.020;2022-12-07T03:35:37;17.30;;;7.90;;
4057;SDS011;2044;48.692;9.020;2022-12-07T03:38:09;14.50;;;7.70;;
4057;SDS011;2044;48.692;9.020;2022-12-07T03:40:43;17.40;;;8.07;;
4057;SDS011;2044;48.692;9.020;2022-12-07T03:43:14;16.90;;;9.13;;
4057;SDS011;2044;48.692;9.020;2022-12-07T03:45:45;17.73;;;9.53;;
4057;SDS011;2044;48.692;9.020;2022-12-07T03:48:22;16.23;;;8.10;;
4057;SDS011;2044;48.692;9.020;2022-12-07T03:50:52;15.37;;;8.10;;
4057;SDS011;2044;48.692;9.020;2022-12-07T03:53:27;13.43;;;7.93;;
4057;SDS011;2044;48.692;9.020;2022-12-07T03:55:59;16.43;;;8.60;;
4057;SDS011;2044;48.692;9.020;2022-12-07T03:58:27;16.87;;;8.30;;
4057;SDS011;2044;48.692;9.020;2022-12-07T04:00:57;17.87;;;8.10;;
4057;SDS011;2044;48.692;9.020;2022-12-07T04:03:24;16.40;;;9.03;;
4057;SDS011;2044;48.692;9.020;2022-12-07T04:05:51;17.93;;;7.80;;
4057;SDS011;2044;48.692;9.020;2022-12-07T04:08:18;17.63;;;8.10;;
4057;SDS011;2044;48.692;9.020;2022-12-07T04:10:45;14.27;;;8.10;;
4057;SDS011;2044;48.692;9.020;2022-12-07T04:13:12;17.17;;;8.63;;
4057;SDS011;2044;48.692;9.020;2022-12-07T04:15:39;15.60;;;8.53;;
4057;SDS011;2044;48.692;9.020;2022-12-07T04:18:08;18.80;;;8.60;;
4057;SDS011;2044;48.692;9.020;2022-12-07T04:20:35;17.57;;;9.03;;
4057;SDS011;2044;48.692;9.020;2022-12-07T04:23:02;15.47;;;7.63;;
4057;SDS011;2044;48.692;9.020;2022-12-07T04:25:29;14.67;;;7.30;;
4057;SDS011;2044;48.692;9.020;2022-12-07T04:27:56;16.30;;;7.70;;
4057;SDS011;2044;48.692;9.020;2022-12-07T04:30:23;14.73;;;7.70;;
4057;SDS011;2044;48.692;9.020;2022-12-07T04:32:50;15.13;;;8.43;;
4057;SDS011;2044;48.692;9.020;2022-12-07T04:35:18;16.70;;;9.10;;
4057;SDS011;2044;48.692;9.020;2022-12-07T04:37:45;16.00;;;8.30;;
4057;SDS011;2044;48.692;9.020;2022-12-07T04:40:12;16.30;;;9.17;;
4057;SDS011;2044;48.692;9.020;2022-12-07T04:42:39;18.63;;;9.40;;
4057;SDS011;2044;48.692;9.020;2022-12-07T04:45:07;17.60;;;8.30;;
4057;SDS011;2044;48.692;9.020;2022-12-07T04:47:34;17.53;;;8.30;;
4057;SDS011;2044;48.692;9.020;2022-12-07T04:50:01;17.23;;;8.87;;
4057;SDS011;2044;48.692;9.020;2022-12-07T04:52:29;20.23;;;8.50;;
4057;SDS011;2044;48.692;9.020;2022-12-07T04:54:57;15.23;;;8.63;;
4057;SDS011;2044;48.692;9.020;2022-12-07T04:57:24;16.27;;;8.27;;
4057;SDS011;2044;48.692;9.020;2022-12-07T04:59:51;14.73;;;8.37;;
4057;SDS011;2044;48.692;9.020;2022-12-07T05:02:18;15.20;;;8.90;;
4057;SDS011;2044;48.692;9.020;2022-12-07T05:04:45;14.40;;;7.40;;
4057;SDS011;2044;48.692;9.020;2022-12-07T05:07:12;13.83;;;8.60;;
4057;SDS011;2044;48.692;9.020;2022-12-07T05:09:40;11.90;;;6.67;;
4057;SDS011;2044;48.692;9.020;2022-12-07T05:12:07;14.57;;;8.40;;
4057;SDS011;2044;48.692;9.020;2022-12-07T05:14:34;15.10;;;7.10;;
4057;SDS011;2044;48.692;9.020;2022-12-07T05:17:01;14.83;;;7.67;;
4057;SDS011;2044;48.692;9.020;2022-12-07T05:19:29;11.57;;;7.60;;
4057;SDS011;2044;48.692;9.020;2022-12-07T05:21:56;12.13;;;6.80;;
4057;SDS011;2044;48.692;9.020;2022-12-07T05:24:23;12.67;;;7.40;;
4057;SDS011;2044;48.692;9.020;2022-12-07T05:26:51;13.90;;;7.50;;
4057;SDS011;2044;48.692;9.020;2022-12-07T05:29:18;16.33;;;7.97;;
4057;SDS011;2044;48.692;9.020;2022-12-07T05:31:45;15.10;;;7.93;;
4057;SDS011;2044;48.692;9.020;2022-12-07T05:34:12;11.67;;;6.83;;
4057;SDS011;2044;48.692;9.020;2022-12-07T05:36:40;15.10;;;7.73;;
4057;SDS011;2044;48.692;9.020;2022-12-07T05:39:07;16.90;;;6.80;;
4057;SDS011;2044;48.692;9.020;2022-12-07T05:41:34;15.57;;;7.03;;
4057;SDS011;2044;48.692;9.020;2022-12-07T05:44:20;9.17;;;5.73;;
4057;SDS011;2044;48.692;9.020;2022-12-07T05:46:47;14.17;;;6.70;;
4057;SDS011;2044;48.692;9.020;2022-12-07T05:49:14;14.13;;;7.03;;
4057;SDS011;2044;48.692;9.020;2022-12-07T05:51:41;14.93;;;7.03;;
4057;SDS011;2044;48.692;9.020;2022-12-07T05:54:08;14.73;;;7.10;;
4057;SDS011;2044;48.692;9.020;2022-12-07T05:56:36;11.87;;;6.57;;
4057;SDS011;2044;48.692;9.020;2022-12-07T05:59:03;12.10;;;6.60;;
4057;SDS011;2044;48.692;9.020;2022-12-07T06:01:49;11.90;;;6.70;;
4057;SDS011;2044;48.692;9.020;2022-12-07T06:04:16;13.10;;;7.20;;
4057;SDS011;2044;48.692;9.020;2022-12-07T06:06:43;15.50;;;7.47;;
4057;SDS011;2044;48.692;9.020;2022-12-07T06:09:10;14.43;;;6.93;;
4057;SDS011;2044;48.692;9.020;2022-12-07T06:11:38;13.80;;;7.50;;
4057;SDS011;2044;48.692;9.020;2022-12-07T06:14:22;14.00;;;6.77;;
4057;SDS011;2044;48.692;9.020;2022-12-07T06:16:51;12.57;;;6.43;;
4057;SDS011;2044;48.692;9.020;2022-12-07T06:19:18;13.73;;;6.80;;
4057;SDS011;2044;48.692;9.020;2022-12-07T06:21:45;13.90;;;6.07;;
4057;SDS011;2044;48.692;9.020;2022-12-07T06:24:12;15.57;;;7.90;;
4057;SDS011;2044;48.692;9.020;2022-12-07T06:26:40;15.77;;;7.00;;
4057;SDS011;2044;48.692;9.020;2022-12-07T06:29:07;9.53;;;6.20;;
4057;SDS011;2044;48.692;9.020;2022-12-07T06:31:35;13.33;;;6.93;;
4057;SDS011;2044;48.692;9.020;2022-12-07T06:34:04;12.57;;;6.40;;
4057;SDS011;2044;48.692;9.020;2022-12-07T06:36:33;13.97;;;6.63;;
4057;SDS011;2044;48.692;9.020;2022-12-07T06:39:00;15.73;;;6.73;;
4057;SDS011;2044;48.692;9.020;2022-12-07T06:41:27;14.77;;;6.97;;
4057;SDS011;2044;48.692;9.020;2022-12-07T06:43:54;14.50;;;7.90;;
4057;SDS011;2044;48.692;9.020;2022-12-07T06:46:21;13.47;;;7.20;;
4057;SDS011;2044;48.692;9.020;2022-12-07T06:48:49;13.20;;;7.30;;
4057;SDS011;2044;48.692;9.020;2022-12-07T06:51:17;12.07;;;6.80;;
4057;SDS011;2044;48.692;9.020;2022-12-07T06:53:44;13.70;;;7.83;;
4057;SDS011;2044;48.692;9.020;2022-12-07T06:56:11;11.33;;;6.97;;
4057;SDS011;2044;48.692;9.020;2022-12-07T06:58:38;17.70;;;9.00;;
4057;SDS011;2044;48.692;9.020;2022-12-07T07:01:08;17.40;;;8.33;;
4057;SDS011;2044;48.692;9.020;2022-12-07T07:03:36;17.57;;;8.23;;
4057;SDS011;2044;48.692;9.020;2022-12-07T07:06:03;18.43;;;8.03;;
4057;SDS011;2044;48.692;9.020;2022-12-07T07:08:31;11.53;;;7.63;;
4057;SDS011;2044;48.692;9.020;2022-12-07T07:10:59;24.60;;;9.00;;
4057;SDS011;2044;48.692;9.020;2022-12-07T07:13:26;18.30;;;9.03;;
4057;SDS011;2044;48.692;9.020;2022-12-07T07:15:53;18.50;;;8.83;;
4057;SDS011;2044;48.692;9.020;2022-12-07T07:18:20;17.77;;;9.20;;
4057;SDS011;2044;48.692;9.020;2022-12-07T07:20:47;16.53;;;8.43;;
4057;SDS011;2044;48.692;9.020;2022-12-07T07:23:15;19.17;;;8.47;;
4057;SDS011;2044;48.692;9.020;2022-12-07T07:25:43;11.20;;;7.03;;
4057;SDS011;2044;48.692;9.020;2022-12-07T07:28:10;16.87;;;8.63;;
4057;SDS011;2044;48.692;9.020;2022-12-07T07:30:37;12.97;;;6.97;;
4057;SDS011;2044;48.692;9.020;2022-12-07T07:33:05;13.53;;;7.13;;
4057;SDS011;2044;48.692;9.020;2022-12-07T07:35:33;15.47;;;8.30;;
4057;SDS011;2044;48.692;9.020;2022-12-07T07:38:00;14.20;;;7.43;;
4057;SDS011;2044;48.692;9.020;2022-12-07T07:40:28;16.03;;;7.17;;
4057;SDS011;2044;48.692;9.020;2022-12-07T07:42:57;10.63;;;6.40;;
4057;SDS011;2044;48.692;9.020;2022-12-07T07:45:24;10.43;;;5.70;;
4057;SDS011;2044;48.692;9.020;2022-12-07T07:47:53;16.27;;;8.00;;
4057;SDS011;2044;48.692;9.020;2022-12-07T07:50:20;13.97;;;7.23;;
4057;SDS011;2044;48.692;9.020;2022-12-07T07:52:47;14.73;;;7.40;;
4057;SDS011;2044;48.692;9.020;2022-12-07T07:55:14;10.80;;;6.67;;
4057;SDS011;2044;48.692;9.020;2022-12-07T07:57:41;15.60;;;7.80;;
4057;SDS011;2044;48.692;9.020;2022-12-07T08:00:10;12.17;;;7.03;;
4057;SDS011;2044;48.692;9.020;2022-12-07T08:02:39;19.83;;;7.93;;
4057;SDS011;2044;48.692;9.020;2022-12-07T08:05:06;17.97;;;7.17;;
4057;SDS011;2044;48.692;9.020;2022-12-07T08:07:33;12.57;;;6.80;;
4057;SDS011;2044;48.692;9.020;2022-12-07T08:10:00;14.20;;;7.77;;
4057;SDS011;2044;48.692;9.020;2022-12-07T08:12:27;14.63;;;6.70;;
4057;SDS011;2044;48.692;9.020;2022-12-07T08:14:54;11.97;;;6.60;;
4057;SDS011;2044;48.692;9.020;2022-12-07T08:17:23;13.90;;;7.57;;
4057;SDS011;2044;48.692;9.020;2022-12-07T08:19:50;17.13;;;7.93;;
4057;SDS011;2044;48.692;9.020;2022-12-07T08:22:17;13.53;;;7.57;;
4057;SDS011;2044;48.692;9.020;2022-12-07T08:24:44;11.80;;;7.10;;
4057;SDS011;2044;48.692;9.020;2022-12-07T08:27:11;14.83;;;9.10;;
4057;SDS011;2044;48.692;9.020;2022-12-07T08:29:38;12.90;;;6.57;;
4057;SDS011;2044;48.692;9.020;2022-12-07T08:32:05;13.07;;;6.23;;
4057;SDS011;2044;48.692;9.020;2022-12-07T08:34:33;10.83;;;5.63;;
4057;SDS011;2044;48.692;9.020;2022-12-07T10:43:21;8.23;;;4.20;;
4057;SDS011;2044;48.692;9.020;2022-12-07T11:22:40;8.80;;;4.13;;
4057;SDS011;2044;48.692;9.020;2022-12-07T11:25:21;9.23;;;4.53;;
4057;SDS011;2044;48.692;9.020;2022-12-07T11:39:09;5.63;;;4.33;;
4057;SDS011;2044;48.692;9.020;2022-12-07T12:09:48;6.47;;;4.60;;
4057;SDS011;2044;48.692;9.020;2022-12-07T12:12:25;6.63;;;4.43;;
4057;SDS011;2044;48.692;9.020;2022-12-07T12:15:10;5.53;;;4.30;;
4057;SDS011;2044;48.692;9.020;2022-12-07T12:17:50;8.27;;;4.30;;
4057;SDS011;2044;48.692;9.020;2022-12-07T12:20:32;7.00;;;4.73;;
4057;SDS011;2044;48.692;9.020;2022-12-07T12:23:07;7.83;;;5.03;;
4057;SDS011;2044;48.692;9.020;2022-12-07T12:25:41;11.23;;;5.77;;
4057;SDS011;2044;48.692;9.020;2022-12-07T12:28:23;9.70;;;5.53;;
4057;SDS011;2044;48.692;9.020;2022-12-07T12:31:06;6.17;;;3.90;;
4057;SDS011;2044;48.692;9.020;2022-12-07T12:33:36;7.07;;;4.87;;
4057;SDS011;2044;48.692;9.020;2022-12-07T12:36:20;5.93;;;4.87;;
4057;SDS011;2044;48.692;9.020;2022-12-07T12:38:51;8.13;;;4.47;;
4057;SDS011;2044;48.692;9.020;2022-12-07T12:41:52;6.70;;;4.40;;
4057;SDS011;2044;48.692;9.020;2022-12-07T12:44:43;8.87;;;6.57;;
4057;SDS011;2044;48.692;9.020;2022-12-07T12:47:53;4.77;;;3.03;;
4057;SDS011;2044;48.692;9.020;2022-12-07T12:50:26;3.93;;;3.00;;
4057;SDS011;2044;48.692;9.020;2022-12-07T12:53:00;3.63;;;3.30;;
4057;SDS011;2044;48.692;9.020;2022-12-07T12:55:43;6.80;;;4.83;;
4057;SDS011;2044;48.692;9.020;2022-12-07T12:58:35;4.53;;;3.23;;
4057;SDS011;2044;48.692;9.020;2022-12-07T13:04:18;4.07;;;3.23;;
4057;SDS011;2044;48.692;9.020;2022-12-07T13:07:12;3.87;;;3.03;;
4057;SDS011;2044;48.692;9.020;2022-12-07T13:09:42;4.33;;;3.67;;
4057;SDS011;2044;48.692;9.020;2022-12-07T13:12:12;8.20;;;5.40;;
4057;SDS011;2044;48.692;9.020;2022-12-07T13:14:42;10.60;;;5.70;;
4057;SDS011;2044;48.692;9.020;2022-12-07T13:23:29;15.90;;;6.40;;
4057;SDS011;2044;48.692;9.020;2022-12-07T13:26:15;6.40;;;4.27;;
4057;SDS011;2044;48.692;9.020;2022-12-07T13:28:43;4.23;;;2.93;;
4057;SDS011;2044;48.692;9.020;2022-12-07T13:37:01;4.33;;;3.70;;
4057;SDS011;2044;48.692;9.020;2022-12-07T13:39:44;8.93;;;5.60;;
4057;SDS011;2044;48.692;9.020;2022-12-07T13:42:15;7.73;;;4.90;;
4057;SDS011;2044;48.692;9.020;2022-12-07T13:44:53;7.13;;;5.30;;
4057;SDS011;2044;48.692;9.020;2022-12-07T13:47:22;15.87;;;7.43;;
4057;SDS011;2044;48.692;9.020;2022-12-07T13:49:59;8.73;;;4.27;;
4057;SDS011;2044;48.692;9.020;2022-12-07T13:52:28;7.13;;;4.20;;
4057;SDS011;2044;48.692;9.020;2022-12-07T13:54:59;13.10;;;8.57;;
4057;SDS011;2044;48.692;9.020;2022-12-07T13:57:28;8.10;;;5.10;;
4057;SDS011;2044;48.692;9.020;2022-12-07T13:59:58;4.87;;;3.27;;
4057;SDS011;2044;48.692;9.020;2022-12-07T14:02:27;11.07;;;5.57;;
4057;SDS011;2044;48.692;9.020;2022-12-07T14:05:06;7.13;;;5.00;;
4057;SDS011;2044;48.692;9.020;2022-12-07T14:07:52;6.33;;;3.97;;
4057;SDS011;2044;48.692;9.020;2022-12-07T14:10:23;8.47;;;5.10;;
4057;SDS011;2044;48.692;9.020;2022-12-07T14:12:51;6.67;;;4.53;;
4057;SDS011;2044;48.692;9.020;2022-12-07T14:15:19;6.07;;;4.03;;
4057;SDS011;2044;48.692;9.020;2022-12-07T14:17:50;5.47;;;4.13;;
4057;SDS011;2044;48.692;9.020;2022-12-07T14:20:31;9.40;;;5.67;;
4057;SDS011;2044;48.692;9.020;2022-12-07T14:23:00;10.63;;;6.00;;
4057;SDS011;2044;48.692;9.020;2022-12-07T14:25:43;8.40;;;5.00;;
4057;SDS011;2044;48.692;9.020;2022-12-07T14:31:21;5.80;;;4.10;;
4057;SDS011;2044;48.692;9.020;2022-12-07T14:34:16;7.73;;;4.97;;
4057;SDS011;2044;48.692;9.020;2022-12-07T14:36:45;7.70;;;4.77;;
4057;SDS011;2044;48.692;9.020;2022-12-07T14:49:57;6.00;;;4.13;;
4057;SDS011;2044;48.692;9.020;2022-12-07T14:52:38;5.10;;;4.00;;
4057;SDS011;2044;48.692;9.020;2022-12-07T14:55:07;7.30;;;5.13;;
4057;SDS011;2044;48.692;9.020;2022-12-07T15:15:14;6.70;;;3.70;;
4057;SDS011;2044;48.692;9.020;2022-12-07T15:17:42;9.80;;;5.53;;
4057;SDS011;2044;48.692;9.020;2022-12-07T15:20:11;9.60;;;5.40;;
4057;SDS011;2044;48.692;9.020;2022-12-07T15:22:42;12.10;;;4.73;;
4057;SDS011;2044;48.692;9.020;2022-12-07T15:25:12;9.60;;;5.17;;
4057;SDS011;2044;48.692;9.020;2022-12-07T15:27:40;7.87;;;4.60;;
4057;SDS011;2044;48.692;9.020;2022-12-07T15:30:07;9.80;;;5.13;;
4057;SDS011;2044;48.692;9.020;2022-12-07T15:32:36;10.43;;;4.33;;
4057;SDS011;2044;48.692;9.020;2022-12-07T15:35:04;9.30;;;5.70;;
4057;SDS011;2044;48.692;9.020;2022-12-07T15:37:31;8.57;;;4.80;;
4057;SDS011;2044;48.692;9.020;2022-12-07T15:39:59;10.13;;;4.83;;
4057;SDS011;2044;48.692;9.020;2022-12-07T15:42:26;8.33;;;5.13;;
4057;SDS011;2044;48.692;9.020;2022-12-07T15:44:53;10.57;;;5.50;;
4057;SDS011;2044;48.692;9.020;2022-12-07T15:47:28;7.83;;;4.33;;
4057;SDS011;2044;48.692;9.020;2022-12-07T15:49:57;7.47;;;4.70;;
4057;SDS011;2044;48.692;9.020;2022-12-07T15:52:25;8.00;;;5.37;;
4057;SDS011;2044;48.692;9.020;2022-12-07T15:54:52;8.33;;;4.90;;
4057;SDS011;2044;48.692;9.020;2022-12-07T15:57:19;8.90;;;5.40;;
4057;SDS011;2044;48.692;9.020;2022-12-07T15:59:46;12.00;;;6.23;;
4057;SDS011;2044;48.692;9.020;2022-12-07T16:02:14;12.53;;;6.27;;
4057;SDS011;2044;48.692;9.020;2022-12-07T16:04:41;9.17;;;5.80;;
4057;SDS011;2044;48.692;9.020;2022-12-07T16:07:09;12.40;;;6.43;;
4057;SDS011;2044;48.692;9.020;2022-12-07T16:09:40;17.93;;;9.70;;
4057;SDS011;2044;48.692;9.020;2022-12-07T16:12:07;17.57;;;10.30;;
4057;SDS011;2044;48.692;9.020;2022-12-07T16:14:35;17.60;;;8.63;;
4057;SDS011;2044;48.692;9.020;2022-12-07T16:17:02;23.83;;;12.97;;
4057;SDS011;2044;48.692;9.020;2022-12-07T16:19:29;22.00;;;11.80;;
4057;SDS011;2044;48.692;9.020;2022-12-07T16:21:56;18.60;;;10.50;;
4057;SDS011;2044;48.692;9.020;2022-12-07T16:24:25;19.00;;;8.33;;
4057;SDS011;2044;48.692;9.020;2022-12-07T16:26:52;17.00;;;8.60;;
4057;SDS011;2044;48.692;9.020;2022-12-07T16:29:21;18.00;;;10.93;;
4057;SDS011;2044;48.692;9.020;2022-12-07T16:31:48;15.80;;;8.43;;
4057;SDS011;2044;48.692;9.020;2022-12-07T16:34:17;13.93;;;7.30;;
4057;SDS011;2044;48.692;9.020;2022-12-07T16:36:44;12.73;;;8.10;;
4057;SDS011;2044;48.692;9.020;2022-12-07T16:39:12;13.90;;;7.63;;
4057;SDS011;2044;48.692;9.020;2022-12-07T16:44:47;14.00;;;7.93;;
4057;SDS011;2044;48.692;9.020;2022-12-07T16:50:12;15.93;;;8.63;;
4057;SDS011;2044;48.692;9.020;2022-12-07T16:52:39;11.07;;;6.40;;
4057;SDS011;2044;48.692;9.020;2022-12-07T16:55:13;18.87;;;8.13;;
4057;SDS011;2044;48.692;9.020;2022-12-07T16:57:48;14.60;;;7.23;;
4057;SDS011;2044;48.692;9.020;2022-12-07T17:00:16;13.47;;;7.43;;
4057;SDS011;2044;48.692;9.020;2022-12-07T17:02:43;11.20;;;7.07;;
4057;SDS011;2044;48.692;9.020;2022-12-07T17:09:13;20.97;;;10.43;;
4057;SDS011;2044;48.692;9.020;2022-12-07T17:36:36;19.67;;;9.83;;
4057;SDS011;2044;48.692;9.020;2022-12-07T17:39:07;14.27;;;8.50;;
4057;SDS011;2044;48.692;9.020;2022-12-07T17:41:42;10.17;;;6.93;;
4057;SDS011;2044;48.692;9.020;2022-12-07T17:44:27;14.60;;;7.33;;
4057;SDS011;2044;48.692;9.020;2022-12-07T17:47:01;14.20;;;6.70;;
4057;SDS011;2044;48.692;9.020;2022-12-07T17:49:28;13.10;;;6.73;;
4057;SDS011;2044;48.692;9.020;2022-12-07T17:51:57;10.57;;;6.40;;
4057;SDS011;2044;48.692;9.020;2022-12-07T17:54:42;12.10;;;6.90;;
4057;SDS011;2044;48.692;9.020;2022-12-07T17:57:09;15.10;;;6.93;;
4057;SDS011;2044;48.692;9.020;2022-12-07T17:59:36;12.10;;;6.63;;
4057;SDS011;2044;48.692;9.020;2022-12-07T18:02:03;11.17;;;6.23;;
4057;SDS011;2044;48.692;9.020;2022-12-07T18:04:31;13.47;;;6.93;;
4057;SDS011;2044;48.692;9.020;2022-12-07T18:06:59;13.83;;;6.30;;
4057;SDS011;2044;48.692;9.020;2022-12-07T18:09:29;14.03;;;5.33;;
4057;SDS011;2044;48.692;9.020;2022-12-07T18:11:56;12.47;;;6.80;;
4057;SDS011;2044;48.692;9.020;2022-12-07T18:14:23;13.53;;;7.20;;
4057;SDS011;2044;48.692;9.020;2022-12-07T18:16:51;14.63;;;6.90;;
4057;SDS011;2044;48.692;9.020;2022-12-07T18:19:17;13.17;;;7.43;;
4057;SDS011;2044;48.692;9.020;2022-12-07T18:21:45;14.40;;;7.63;;
4057;SDS011;2044;48.692;9.020;2022-12-07T18:24:14;12.77;;;7.43;;
4057;SDS011;2044;48.692;9.020;2022-12-07T18:26:42;14.23;;;8.20;;
4057;SDS011;2044;48.692;9.020;2022-12-07T18:29:12;11.60;;;7.40;;
4057;SDS011;2044;48.692;9.020;2022-12-07T18:31:40;15.60;;;7.60;;
4057;SDS011;2044;48.692;9.020;2022-12-07T18:34:07;13.90;;;8.10;;
4057;SDS011;2044;48.692;9.020;2022-12-07T18:36:37;11.23;;;6.57;;
4057;SDS011;2044;48.692;9.020;2022-12-07T18:39:06;10.63;;;6.20;;
4057;SDS011;2044;48.692;9.020;2022-12-07T18:41:34;13.00;;;7.80;;
4057;SDS011;2044;48.692;9.020;2022-12-07T18:44:02;12.07;;;6.77;;
4057;SDS011;2044;48.692;9.020;2022-12-07T18:46:30;14.90;;;9.07;;
4057;SDS011;2044;48.692;9.020;2022-12-07T18:48:57;20.90;;;9.83;;
4057;SDS011;2044;48.692;9.020;2022-12-07T18:51:25;16.27;;;9.93;;
4057;SDS011;2044;48.692;9.020;2022-12-07T18:53:54;17.57;;;9.10;;
4057;SDS011;2044;48.692;9.020;2022-12-07T18:56:21;15.00;;;8.07;;
4057;SDS011;2044;48.692;9.020;2022-12-07T18:58:51;13.67;;;8.20;;
4057;SDS011;2044;48.692;9.020;2022-12-07T19:01:37;16.70;;;8.90;;
4057;SDS011;2044;48.692;9.020;2022-12-07T19:04:05;12.93;;;8.07;;
4057;SDS011;2044;48.692;9.020;2022-12-07T19:06:33;13.07;;;7.60;;
4057;SDS011;2044;48.692;9.020;2022-12-07T19:09:00;16.53;;;8.73;;
4057;SDS011;2044;48.692;9.020;2022-12-07T19:11:28;15.10;;;7.30;;
4057;SDS011;2044;48.692;9.020;2022-12-07T19:14:16;14.27;;;8.63;;
4057;SDS011;2044;48.692;9.020;2022-12-07T19:16:46;16.90;;;8.30;;
4057;SDS011;2044;48.692;9.020;2022-12-07T19:19:14;13.37;;;7.27;;
4057;SDS011;2044;48.692;9.020;2022-12-07T19:21:42;16.17;;;8.57;;
4057;SDS011;2044;48.692;9.020;2022-12-07T19:24:09;14.10;;;8.00;;
4057;SDS011;2044;48.692;9.020;2022-12-07T19:26:36;14.67;;;7.60;;
4057;SDS011;2044;48.692;9.020;2022-12-07T19:29:03;15.50;;;8.23;;
4057;SDS011;2044;48.692;9.020;2022-12-07T19:31:39;12.47;;;7.60;;
4057;SDS011;2044;48.692;9.020;2022-12-07T19:34:07;15.57;;;8.40;;
4057;SDS011;2044;48.692;9.020;2022-12-07T19:36:34;19.20;;;10.30;;
4057;SDS011;2044;48.692;9.020;2022-12-07T19:39:01;14.57;;;7.50;;
4057;SDS011;2044;48.692;9.020;2022-12-07T19:41:28;15.83;;;7.17;;
4057;SDS011;2044;48.692;9.020;2022-12-07T19:44:04;17.70;;;8.60;;
4057;SDS011;2044;48.692;9.020;2022-12-07T19:46:32;15.50;;;8.20;;
4057;SDS011;2044;48.692;9.020;2022-12-07T19:49:00;14.60;;;6.97;;
4057;SDS011;2044;48.692;9.020;2022-12-07T19:51:28;18.13;;;8.27;;
4057;SDS011;2044;48.692;9.020;2022-12-07T19:53:56;12.23;;;8.00;;
4057;SDS011;2044;48.692;9.020;2022-12-07T19:56:23;16.23;;;9.27;;
4057;SDS011;2044;48.692;9.020;2022-12-07T19:58:51;16.67;;;9.17;;
4057;SDS011;2044;48.692;9.020;2022-12-07T20:01:18;17.20;;;9.20;;
4057;SDS011;2044;48.692;9.020;2022-12-07T20:03:46;15.80;;;9.33;;
4057;SDS011;2044;48.692;9.020;2022-12-07T20:06:15;14.90;;;9.07;;
4057;SDS011;2044;48.692;9.020;2022-12-07T20:08:44;17.37;;;8.70;;
4057;SDS011;2044;48.692;9.020;2022-12-07T20:11:13;16.47;;;7.97;;
4057;SDS011;2044;48.692;9.020;2022-12-07T20:13:58;17.07;;;8.60;;